Hlavní strana
METAR-TAF:

METAR-TAF

Letiště :

Tetuán, Maroko

zeměpisná šířka: 35-35N, zeměpisná délka: 005-20W, výška: 10 m

Aktuální stav počasí

Zpráva byla vytvořena před 49 minutami, v 13:00 UTC
Východní vítr 14 kt, proměnlivý mezi východoseverovýchodním a jihovýchodním
Teplota 23°C
Vlhkost vzduchu 78%
Tlak 1021 hPa
Viditelnost 10 km a více
Polojasno ve výšce 1600 ft
Polojasno ve výšce 3400 ft

METAR: GMTN 261300Z 10014KT 060V130 9999 SCT016 SCT034 23/19 Q1021 NOSIG

Čas: 14:49 (13:49 UTC)


TAF: chybějící

Stav a předpovědi počasí z více než 4 000 letišť (zprávy METAR a TAF).

Červené a žluté tečky na mapě představují dostupné meteorologické stanice.

Když kurzor umístíte na tečku, zobrazí se název stanice.

Pak kliknutím zobrazíte stav a předpověď počasí.

Chcete-li změnit mapu, kliknutím na zelené tlačítko se znaménkem +mapu přiblížíte, kliknutím na zelené tlačítko se znaménkem – mapu oddálíte a kliknutím na zelené šipky přejdete na sousední mapy.


METAR-TAF: